sensor_id;sensor_type;location;lat;lon;timestamp;temperature;humidity
16823;DHT22;8528;49.976;11.858;2022-09-27T00:01:38;8.80;99.90
16823;DHT22;8528;49.976;11.858;2022-09-27T00:04:05;8.80;99.90
16823;DHT22;8528;49.976;11.858;2022-09-27T00:06:32;8.80;99.90
16823;DHT22;8528;49.976;11.858;2022-09-27T00:09:09;8.80;99.90
16823;DHT22;8528;49.976;11.858;2022-09-27T00:11:38;8.80;99.90
16823;DHT22;8528;49.976;11.858;2022-09-27T00:14:06;8.80;99.90
16823;DHT22;8528;49.976;11.858;2022-09-27T00:16:35;8.80;99.90
16823;DHT22;8528;49.976;11.858;2022-09-27T00:19:05;8.70;99.90
16823;DHT22;8528;49.976;11.858;2022-09-27T00:21:33;8.70;99.90
16823;DHT22;8528;49.976;11.858;2022-09-27T00:24:00;8.70;99.90
16823;DHT22;8528;49.976;11.858;2022-09-27T00:26:27;8.70;99.90
16823;DHT22;8528;49.976;11.858;2022-09-27T00:29:00;8.70;99.90
16823;DHT22;8528;49.976;11.858;2022-09-27T00:31:37;8.70;99.90
16823;DHT22;8528;49.976;11.858;2022-09-27T00:34:10;8.70;99.90
16823;DHT22;8528;49.976;11.858;2022-09-27T00:36:39;8.70;99.90
16823;DHT22;8528;49.976;11.858;2022-09-27T00:39:09;8.70;99.90
16823;DHT22;8528;49.976;11.858;2022-09-27T00:41:38;8.70;99.90
16823;DHT22;8528;49.976;11.858;2022-09-27T00:49:56;8.80;99.90
16823;DHT22;8528;49.976;11.858;2022-09-27T00:53:09;8.70;99.90
16823;DHT22;8528;49.976;11.858;2022-09-27T00:55:40;8.70;99.90
16823;DHT22;8528;49.976;11.858;2022-09-27T00:58:09;8.70;99.90
16823;DHT22;8528;49.976;11.858;2022-09-27T01:00:43;8.70;99.90
16823;DHT22;8528;49.976;11.858;2022-09-27T01:03:14;8.70;99.90
16823;DHT22;8528;49.976;11.858;2022-09-27T01:05:45;8.70;99.90
16823;DHT22;8528;49.976;11.858;2022-09-27T01:08:12;8.60;99.90
16823;DHT22;8528;49.976;11.858;2022-09-27T01:10:54;8.60;99.90
16823;DHT22;8528;49.976;11.858;2022-09-27T01:13:34;8.50;99.90
16823;DHT22;8528;49.976;11.858;2022-09-27T01:16:41;8.50;99.90
16823;DHT22;8528;49.976;11.858;2022-09-27T01:22:12;8.40;99.90
16823;DHT22;8528;49.976;11.858;2022-09-27T01:24:56;8.50;99.90
16823;DHT22;8528;49.976;11.858;2022-09-27T01:27:36;8.40;99.90
16823;DHT22;8528;49.976;11.858;2022-09-27T01:30:20;8.40;99.90
16823;DHT22;8528;49.976;11.858;2022-09-27T01:33:01;8.40;99.90
16823;DHT22;8528;49.976;11.858;2022-09-27T01:35:50;8.40;99.90
16823;DHT22;8528;49.976;11.858;2022-09-27T01:44:12;8.40;99.90
16823;DHT22;8528;49.976;11.858;2022-09-27T01:46:46;8.40;99.90
16823;DHT22;8528;49.976;11.858;2022-09-27T01:49:27;8.40;99.90
16823;DHT22;8528;49.976;11.858;2022-09-27T01:52:01;8.40;99.90
16823;DHT22;8528;49.976;11.858;2022-09-27T01:54:44;8.40;99.90
16823;DHT22;8528;49.976;11.858;2022-09-27T01:57:17;8.40;99.90
16823;DHT22;8528;49.976;11.858;2022-09-27T02:00:11;8.40;99.90
16823;DHT22;8528;49.976;11.858;2022-09-27T02:03:04;8.40;99.90
16823;DHT22;8528;49.976;11.858;2022-09-27T02:05:41;8.40;99.90
16823;DHT22;8528;49.976;11.858;2022-09-27T02:08:18;8.40;99.90
16823;DHT22;8528;49.976;11.858;2022-09-27T02:10:52;8.50;99.90
16823;DHT22;8528;49.976;11.858;2022-09-27T02:18:59;8.40;99.90
16823;DHT22;8528;49.976;11.858;2022-09-27T02:21:55;8.40;99.90
16823;DHT22;8528;49.976;11.858;2022-09-27T02:24:46;8.40;99.90
16823;DHT22;8528;49.976;11.858;2022-09-27T02:27:23;8.40;99.90
16823;DHT22;8528;49.976;11.858;2022-09-27T02:30:18;8.40;99.90
16823;DHT22;8528;49.976;11.858;2022-09-27T02:32:45;8.40;99.90
16823;DHT22;8528;49.976;11.858;2022-09-27T02:35:23;8.40;99.90
16823;DHT22;8528;49.976;11.858;2022-09-27T02:37:51;8.40;99.90
16823;DHT22;8528;49.976;11.858;2022-09-27T02:40:23;8.30;99.90
16823;DHT22;8528;49.976;11.858;2022-09-27T02:42:51;8.30;99.90
16823;DHT22;8528;49.976;11.858;2022-09-27T02:45:18;8.30;99.90
16823;DHT22;8528;49.976;11.858;2022-09-27T02:48:11;8.30;99.90
16823;DHT22;8528;49.976;11.858;2022-09-27T02:53:39;8.20;99.90
16823;DHT22;8528;49.976;11.858;2022-09-27T02:56:24;8.20;99.90
16823;DHT22;8528;49.976;11.858;2022-09-27T02:59:12;8.20;99.90
16823;DHT22;8528;49.976;11.858;2022-09-27T03:05:09;8.20;99.90
16823;DHT22;8528;49.976;11.858;2022-09-27T03:07:38;8.20;99.90
16823;DHT22;8528;49.976;11.858;2022-09-27T03:10:06;8.20;99.90
16823;DHT22;8528;49.976;11.858;2022-09-27T03:12:33;8.20;99.90
16823;DHT22;8528;49.976;11.858;2022-09-27T03:15:00;8.20;99.90
16823;DHT22;8528;49.976;11.858;2022-09-27T03:17:27;8.20;99.90
16823;DHT22;8528;49.976;11.858;2022-09-27T03:19:54;8.10;99.90
16823;DHT22;8528;49.976;11.858;2022-09-27T03:22:20;8.10;99.90
16823;DHT22;8528;49.976;11.858;2022-09-27T03:24:47;8.10;99.90
16823;DHT22;8528;49.976;11.858;2022-09-27T03:27:14;8.10;99.90
16823;DHT22;8528;49.976;11.858;2022-09-27T03:29:41;8.00;99.90
16823;DHT22;8528;49.976;11.858;2022-09-27T03:32:08;8.00;99.90
16823;DHT22;8528;49.976;11.858;2022-09-27T03:34:36;8.00;99.90
16823;DHT22;8528;49.976;11.858;2022-09-27T03:37:04;8.00;99.90
16823;DHT22;8528;49.976;11.858;2022-09-27T03:39:31;7.90;99.90
16823;DHT22;8528;49.976;11.858;2022-09-27T03:41:59;7.90;99.90
16823;DHT22;8528;49.976;11.858;2022-09-27T03:44:25;7.90;99.90
16823;DHT22;8528;49.976;11.858;2022-09-27T03:46:58;7.80;99.90
16823;DHT22;8528;49.976;11.858;2022-09-27T03:49:25;7.80;99.90
16823;DHT22;8528;49.976;11.858;2022-09-27T03:51:52;7.80;99.90
16823;DHT22;8528;49.976;11.858;2022-09-27T03:54:19;7.80;99.90
16823;DHT22;8528;49.976;11.858;2022-09-27T03:56:46;7.80;99.90
16823;DHT22;8528;49.976;11.858;2022-09-27T03:59:13;7.70;99.90
16823;DHT22;8528;49.976;11.858;2022-09-27T04:01:43;7.70;99.90
16823;DHT22;8528;49.976;11.858;2022-09-27T04:04:11;7.70;99.90
16823;DHT22;8528;49.976;11.858;2022-09-27T04:06:37;7.70;99.90
16823;DHT22;8528;49.976;11.858;2022-09-27T04:09:04;7.70;99.90
16823;DHT22;8528;49.976;11.858;2022-09-27T04:11:34;7.70;99.90
16823;DHT22;8528;49.976;11.858;2022-09-27T04:14:01;7.70;99.90
16823;DHT22;8528;49.976;11.858;2022-09-27T04:16:31;7.80;99.90
16823;DHT22;8528;49.976;11.858;2022-09-27T04:18:58;7.80;99.90
16823;DHT22;8528;49.976;11.858;2022-09-27T04:21:25;7.80;99.90
16823;DHT22;8528;49.976;11.858;2022-09-27T04:23:54;7.80;99.90
16823;DHT22;8528;49.976;11.858;2022-09-27T04:26:20;7.80;99.90
16823;DHT22;8528;49.976;11.858;2022-09-27T04:28:53;7.90;99.90
16823;DHT22;8528;49.976;11.858;2022-09-27T04:31:20;7.90;99.90
16823;DHT22;8528;49.976;11.858;2022-09-27T04:33:50;7.90;99.90
16823;DHT22;8528;49.976;11.858;2022-09-27T04:36:19;7.90;99.90
16823;DHT22;8528;49.976;11.858;2022-09-27T04:39:04;7.90;99.90
16823;DHT22;8528;49.976;11.858;2022-09-27T04:41:37;7.90;99.90
16823;DHT22;8528;49.976;11.858;2022-09-27T04:44:04;7.90;99.90
16823;DHT22;8528;49.976;11.858;2022-09-27T04:46:34;7.90;99.90
16823;DHT22;8528;49.976;11.858;2022-09-27T04:49:01;7.90;99.90
16823;DHT22;8528;49.976;11.858;2022-09-27T04:51:28;7.90;99.90
16823;DHT22;8528;49.976;11.858;2022-09-27T04:53:58;7.90;99.90
16823;DHT22;8528;49.976;11.858;2022-09-27T04:56:32;7.90;99.90
16823;DHT22;8528;49.976;11.858;2022-09-27T04:58:59;7.90;99.90
16823;DHT22;8528;49.976;11.858;2022-09-27T05:01:26;7.90;99.90
16823;DHT22;8528;49.976;11.858;2022-09-27T05:03:53;8.00;99.90
16823;DHT22;8528;49.976;11.858;2022-09-27T05:06:20;8.00;99.90
16823;DHT22;8528;49.976;11.858;2022-09-27T05:08:46;8.00;99.90
16823;DHT22;8528;49.976;11.858;2022-09-27T05:11:16;7.90;99.90
16823;DHT22;8528;49.976;11.858;2022-09-27T05:13:43;7.90;99.90
16823;DHT22;8528;49.976;11.858;2022-09-27T05:16:13;7.90;99.90
16823;DHT22;8528;49.976;11.858;2022-09-27T05:18:40;7.90;99.90
16823;DHT22;8528;49.976;11.858;2022-09-27T05:21:10;7.90;99.90
16823;DHT22;8528;49.976;11.858;2022-09-27T05:23:38;7.90;99.90
16823;DHT22;8528;49.976;11.858;2022-09-27T05:26:06;7.90;99.90
16823;DHT22;8528;49.976;11.858;2022-09-27T05:28:33;8.00;99.90
16823;DHT22;8528;49.976;11.858;2022-09-27T05:31:03;8.00;99.90
16823;DHT22;8528;49.976;11.858;2022-09-27T05:33:30;8.00;99.90
16823;DHT22;8528;49.976;11.858;2022-09-27T05:36:00;8.00;99.90
16823;DHT22;8528;49.976;11.858;2022-09-27T05:38:28;8.00;99.90
16823;DHT22;8528;49.976;11.858;2022-09-27T05:40:55;8.00;99.90
16823;DHT22;8528;49.976;11.858;2022-09-27T05:43:25;8.00;99.90
16823;DHT22;8528;49.976;11.858;2022-09-27T05:45:57;8.10;99.90
16823;DHT22;8528;49.976;11.858;2022-09-27T05:48:24;8.10;99.90
16823;DHT22;8528;49.976;11.858;2022-09-27T05:50:51;8.10;99.90
16823;DHT22;8528;49.976;11.858;2022-09-27T05:53:18;8.10;99.90
16823;DHT22;8528;49.976;11.858;2022-09-27T05:55:46;8.10;99.90
16823;DHT22;8528;49.976;11.858;2022-09-27T05:58:18;8.00;99.90
16823;DHT22;8528;49.976;11.858;2022-09-27T06:00:45;8.00;99.90
16823;DHT22;8528;49.976;11.858;2022-09-27T06:03:19;8.00;99.90
16823;DHT22;8528;49.976;11.858;2022-09-27T06:05:46;7.90;99.90
16823;DHT22;8528;49.976;11.858;2022-09-27T06:08:20;7.90;99.90
16823;DHT22;8528;49.976;11.858;2022-09-27T06:10:47;7.80;99.90
16823;DHT22;8528;49.976;11.858;2022-09-27T06:13:15;7.70;99.90
16823;DHT22;8528;49.976;11.858;2022-09-27T06:15:43;7.70;99.90
16823;DHT22;8528;49.976;11.858;2022-09-27T06:18:15;7.70;99.90
16823;DHT22;8528;49.976;11.858;2022-09-27T06:20:51;7.70;99.90
16823;DHT22;8528;49.976;11.858;2022-09-27T06:23:22;7.70;99.90
16823;DHT22;8528;49.976;11.858;2022-09-27T06:25:50;7.60;99.90
16823;DHT22;8528;49.976;11.858;2022-09-27T06:28:17;7.70;99.90
16823;DHT22;8528;49.976;11.858;2022-09-27T06:30:49;7.70;99.90
16823;DHT22;8528;49.976;11.858;2022-09-27T06:33:19;7.70;99.90
16823;DHT22;8528;49.976;11.858;2022-09-27T06:35:47;7.70;99.90
16823;DHT22;8528;49.976;11.858;2022-09-27T06:38:24;7.70;99.90
16823;DHT22;8528;49.976;11.858;2022-09-27T06:40:53;7.70;99.90
16823;DHT22;8528;49.976;11.858;2022-09-27T06:43:29;7.80;99.90
16823;DHT22;8528;49.976;11.858;2022-09-27T06:45:59;7.80;99.90
16823;DHT22;8528;49.976;11.858;2022-09-27T06:48:34;7.80;99.90
16823;DHT22;8528;49.976;11.858;2022-09-27T06:51:03;7.80;99.90
16823;DHT22;8528;49.976;11.858;2022-09-27T06:53:30;7.80;99.90
16823;DHT22;8528;49.976;11.858;2022-09-27T06:56:03;7.80;99.90
16823;DHT22;8528;49.976;11.858;2022-09-27T06:58:30;7.80;99.90
16823;DHT22;8528;49.976;11.858;2022-09-27T07:01:16;7.90;99.90
16823;DHT22;8528;49.976;11.858;2022-09-27T07:03:48;7.90;99.90
16823;DHT22;8528;49.976;11.858;2022-09-27T07:06:18;7.90;99.90
16823;DHT22;8528;49.976;11.858;2022-09-27T07:08:53;7.90;99.90
16823;DHT22;8528;49.976;11.858;2022-09-27T07:11:23;7.90;99.90
16823;DHT22;8528;49.976;11.858;2022-09-27T07:13:54;7.90;99.90
16823;DHT22;8528;49.976;11.858;2022-09-27T07:16:22;7.90;99.90
16823;DHT22;8528;49.976;11.858;2022-09-27T07:18:49;7.90;99.90
16823;DHT22;8528;49.976;11.858;2022-09-27T07:21:16;7.90;99.90
16823;DHT22;8528;49.976;11.858;2022-09-27T07:23:46;7.90;99.90
16823;DHT22;8528;49.976;11.858;2022-09-27T07:26:13;7.90;99.90
16823;DHT22;8528;49.976;11.858;2022-09-27T07:28:42;7.90;99.90
16823;DHT22;8528;49.976;11.858;2022-09-27T07:31:11;8.00;99.90
16823;DHT22;8528;49.976;11.858;2022-09-27T07:33:41;8.10;99.90
16823;DHT22;8528;49.976;11.858;2022-09-27T07:36:10;8.10;99.90
16823;DHT22;8528;49.976;11.858;2022-09-27T07:38:37;8.20;99.90
16823;DHT22;8528;49.976;11.858;2022-09-27T07:41:12;8.10;99.90
16823;DHT22;8528;49.976;11.858;2022-09-27T07:43:41;8.10;99.90
16823;DHT22;8528;49.976;11.858;2022-09-27T07:46:11;8.10;99.90
16823;DHT22;8528;49.976;11.858;2022-09-27T07:48:42;8.10;99.90
16823;DHT22;8528;49.976;11.858;2022-09-27T07:51:09;8.10;99.90
16823;DHT22;8528;49.976;11.858;2022-09-27T07:53:37;8.00;99.90
16823;DHT22;8528;49.976;11.858;2022-09-27T07:56:10;8.00;99.90
16823;DHT22;8528;49.976;11.858;2022-09-27T07:58:37;8.00;99.90
16823;DHT22;8528;49.976;11.858;2022-09-27T08:01:03;8.00;99.90
16823;DHT22;8528;49.976;11.858;2022-09-27T08:03:30;8.00;99.90
16823;DHT22;8528;49.976;11.858;2022-09-27T08:06:01;8.00;99.90
16823;DHT22;8528;49.976;11.858;2022-09-27T08:08:31;8.00;99.90
16823;DHT22;8528;49.976;11.858;2022-09-27T08:10:58;8.00;99.90
16823;DHT22;8528;49.976;11.858;2022-09-27T08:13:28;8.00;99.90
16823;DHT22;8528;49.976;11.858;2022-09-27T08:16:00;7.90;99.90
16823;DHT22;8528;49.976;11.858;2022-09-27T08:18:27;7.90;99.90
16823;DHT22;8528;49.976;11.858;2022-09-27T08:21:00;7.80;99.90
16823;DHT22;8528;49.976;11.858;2022-09-27T08:23:27;7.80;99.90
16823;DHT22;8528;49.976;11.858;2022-09-27T08:25:55;7.80;99.90
16823;DHT22;8528;49.976;11.858;2022-09-27T08:28:25;7.70;99.90
16823;DHT22;8528;49.976;11.858;2022-09-27T08:30:57;7.60;99.90
16823;DHT22;8528;49.976;11.858;2022-09-27T08:33:25;7.50;99.90
16823;DHT22;8528;49.976;11.858;2022-09-27T08:35:58;7.40;99.90
16823;DHT22;8528;49.976;11.858;2022-09-27T08:38:25;7.40;99.90
16823;DHT22;8528;49.976;11.858;2022-09-27T08:41:04;7.50;99.90
16823;DHT22;8528;49.976;11.858;2022-09-27T08:44:00;7.50;99.90
16823;DHT22;8528;49.976;11.858;2022-09-27T08:49:15;7.50;99.90
16823;DHT22;8528;49.976;11.858;2022-09-27T08:51:47;7.40;99.90
16823;DHT22;8528;49.976;11.858;2022-09-27T08:54:27;7.50;99.90
16823;DHT22;8528;49.976;11.858;2022-09-27T08:57:03;7.70;99.90
16823;DHT22;8528;49.976;11.858;2022-09-27T08:59:40;8.10;99.90
16823;DHT22;8528;49.976;11.858;2022-09-27T09:02:19;8.20;99.90
16823;DHT22;8528;49.976;11.858;2022-09-27T09:04:53;8.10;99.90
16823;DHT22;8528;49.976;11.858;2022-09-27T09:07:46;8.00;99.90
16823;DHT22;8528;49.976;11.858;2022-09-27T09:13:51;7.90;99.90
16823;DHT22;8528;49.976;11.858;2022-09-27T09:19:25;8.00;99.90
16823;DHT22;8528;49.976;11.858;2022-09-27T09:22:25;8.10;99.90
16823;DHT22;8528;49.976;11.858;2022-09-27T09:28:00;8.20;99.90
16823;DHT22;8528;49.976;11.858;2022-09-27T09:33:33;8.20;99.90
16823;DHT22;8528;49.976;11.858;2022-09-27T09:39:17;7.80;99.90
16823;DHT22;8528;49.976;11.858;2022-09-27T09:42:12;7.50;99.90
16823;DHT22;8528;49.976;11.858;2022-09-27T09:44:47;7.40;99.90
16823;DHT22;8528;49.976;11.858;2022-09-27T09:47:41;7.40;99.90
16823;DHT22;8528;49.976;11.858;2022-09-27T09:50:25;7.50;99.90
16823;DHT22;8528;49.976;11.858;2022-09-27T09:53:16;7.70;99.90
16823;DHT22;8528;49.976;11.858;2022-09-27T09:55:48;7.80;99.90
16823;DHT22;8528;49.976;11.858;2022-09-27T09:58:25;7.90;99.90
16823;DHT22;8528;49.976;11.858;2022-09-27T10:00:58;8.00;99.90
16823;DHT22;8528;49.976;11.858;2022-09-27T10:03:26;8.20;99.90
16823;DHT22;8528;49.976;11.858;2022-09-27T10:05:53;8.10;99.90
16823;DHT22;8528;49.976;11.858;2022-09-27T10:08:21;8.20;99.90
16823;DHT22;8528;49.976;11.858;2022-09-27T10:10:49;8.20;99.90
16823;DHT22;8528;49.976;11.858;2022-09-27T10:13:21;8.30;99.90
16823;DHT22;8528;49.976;11.858;2022-09-27T10:15:59;8.20;99.90
16823;DHT22;8528;49.976;11.858;2022-09-27T10:18:28;8.10;99.90
16823;DHT22;8528;49.976;11.858;2022-09-27T10:20:59;8.10;99.90
16823;DHT22;8528;49.976;11.858;2022-09-27T10:23:26;8.20;99.90
16823;DHT22;8528;49.976;11.858;2022-09-27T10:26:03;8.20;99.90
16823;DHT22;8528;49.976;11.858;2022-09-27T10:28:37;8.10;99.90
16823;DHT22;8528;49.976;11.858;2022-09-27T10:31:13;8.10;99.90
16823;DHT22;8528;49.976;11.858;2022-09-27T10:33:59;8.00;99.90
16823;DHT22;8528;49.976;11.858;2022-09-27T10:36:32;8.00;99.90
16823;DHT22;8528;49.976;11.858;2022-09-27T10:39:02;8.00;99.90
16823;DHT22;8528;49.976;11.858;2022-09-27T10:41:33;8.00;99.90
16823;DHT22;8528;49.976;11.858;2022-09-27T10:44:20;8.00;99.90
16823;DHT22;8528;49.976;11.858;2022-09-27T10:47:06;8.00;99.90
16823;DHT22;8528;49.976;11.858;2022-09-27T10:49:38;8.10;99.90
16823;DHT22;8528;49.976;11.858;2022-09-27T10:52:07;8.30;99.90
16823;DHT22;8528;49.976;11.858;2022-09-27T10:54:37;8.50;99.90
16823;DHT22;8528;49.976;11.858;2022-09-27T10:57:16;8.60;99.90
16823;DHT22;8528;49.976;11.858;2022-09-27T10:59:48;8.70;99.90
16823;DHT22;8528;49.976;11.858;2022-09-27T11:02:35;8.50;99.90
16823;DHT22;8528;49.976;11.858;2022-09-27T11:05:15;8.50;99.90
16823;DHT22;8528;49.976;11.858;2022-09-27T11:08:23;8.50;99.90
16823;DHT22;8528;49.976;11.858;2022-09-27T11:11:19;8.50;99.90
16823;DHT22;8528;49.976;11.858;2022-09-27T11:13:58;8.40;99.90
16823;DHT22;8528;49.976;11.858;2022-09-27T11:24:48;8.10;99.90
16823;DHT22;8528;49.976;11.858;2022-09-27T11:30:03;8.20;99.90
16823;DHT22;8528;49.976;11.858;2022-09-27T11:35:40;8.10;99.90
16823;DHT22;8528;49.976;11.858;2022-09-27T11:52:42;7.50;99.90
16823;DHT22;8528;49.976;11.858;2022-09-27T11:58:24;7.30;99.90
16823;DHT22;8528;49.976;11.858;2022-09-27T12:10:02;7.60;99.90
16823;DHT22;8528;49.976;11.858;2022-09-27T12:12:32;7.70;99.90
16823;DHT22;8528;49.976;11.858;2022-09-27T12:15:19;7.70;99.90
16823;DHT22;8528;49.976;11.858;2022-09-27T12:17:54;7.60;99.90
16823;DHT22;8528;49.976;11.858;2022-09-27T12:20:29;7.60;99.90
16823;DHT22;8528;49.976;11.858;2022-09-27T12:23:01;7.70;99.90
16823;DHT22;8528;49.976;11.858;2022-09-27T12:25:36;7.80;99.90
16823;DHT22;8528;49.976;11.858;2022-09-27T12:28:09;7.90;99.90
16823;DHT22;8528;49.976;11.858;2022-09-27T12:30:42;7.80;99.90
16823;DHT22;8528;49.976;11.858;2022-09-27T12:33:27;7.70;99.90
16823;DHT22;8528;49.976;11.858;2022-09-27T12:36:00;7.70;99.90
16823;DHT22;8528;49.976;11.858;2022-09-27T12:41:24;8.00;99.90
16823;DHT22;8528;49.976;11.858;2022-09-27T12:43:54;8.20;99.90
16823;DHT22;8528;49.976;11.858;2022-09-27T12:49:33;8.40;99.90
16823;DHT22;8528;49.976;11.858;2022-09-27T12:52:08;8.50;99.90
16823;DHT22;8528;49.976;11.858;2022-09-27T12:55:00;8.50;99.90
16823;DHT22;8528;49.976;11.858;2022-09-27T12:57:50;8.80;99.90
16823;DHT22;8528;49.976;11.858;2022-09-27T13:00:28;8.80;99.90
16823;DHT22;8528;49.976;11.858;2022-09-27T13:06:10;8.80;99.90
16823;DHT22;8528;49.976;11.858;2022-09-27T13:08:57;8.70;99.90
16823;DHT22;8528;49.976;11.858;2022-09-27T13:14:23;8.70;99.90
16823;DHT22;8528;49.976;11.858;2022-09-27T13:16:51;8.60;99.90
16823;DHT22;8528;49.976;11.858;2022-09-27T13:24:55;8.30;99.90
16823;DHT22;8528;49.976;11.858;2022-09-27T13:32:34;8.90;99.90
16823;DHT22;8528;49.976;11.858;2022-09-27T13:35:29;9.10;99.90
16823;DHT22;8528;49.976;11.858;2022-09-27T13:37:59;9.10;99.90
16823;DHT22;8528;49.976;11.858;2022-09-27T13:40:38;9.00;99.90
16823;DHT22;8528;49.976;11.858;2022-09-27T13:46:24;8.80;99.90
16823;DHT22;8528;49.976;11.858;2022-09-27T13:49:25;9.10;99.90
16823;DHT22;8528;49.976;11.858;2022-09-27T13:54:58;9.50;99.90
16823;DHT22;8528;49.976;11.858;2022-09-27T13:57:56;9.80;99.90
16823;DHT22;8528;49.976;11.858;2022-09-27T14:00:30;10.10;99.90
16823;DHT22;8528;49.976;11.858;2022-09-27T14:05:39;10.80;99.90
16823;DHT22;8528;49.976;11.858;2022-09-27T14:08:35;10.80;99.90
16823;DHT22;8528;49.976;11.858;2022-09-27T14:11:10;10.60;99.90
16823;DHT22;8528;49.976;11.858;2022-09-27T14:13:38;10.40;99.90
16823;DHT22;8528;49.976;11.858;2022-09-27T14:16:06;10.40;99.90
16823;DHT22;8528;49.976;11.858;2022-09-27T14:18:34;10.40;99.90
16823;DHT22;8528;49.976;11.858;2022-09-27T14:21:25;10.40;99.90
16823;DHT22;8528;49.976;11.858;2022-09-27T14:23:53;10.10;99.90
16823;DHT22;8528;49.976;11.858;2022-09-27T14:26:36;10.00;99.90
16823;DHT22;8528;49.976;11.858;2022-09-27T14:29:17;9.70;99.90
16823;DHT22;8528;49.976;11.858;2022-09-27T14:31:44;9.60;99.90
16823;DHT22;8528;49.976;11.858;2022-09-27T14:34:14;9.50;99.90
16823;DHT22;8528;49.976;11.858;2022-09-27T14:36:43;9.50;99.90
16823;DHT22;8528;49.976;11.858;2022-09-27T14:39:33;9.40;99.90
16823;DHT22;8528;49.976;11.858;2022-09-27T14:42:18;9.30;99.90
16823;DHT22;8528;49.976;11.858;2022-09-27T14:44:52;9.10;99.90
16823;DHT22;8528;49.976;11.858;2022-09-27T14:47:22;8.90;99.90
16823;DHT22;8528;49.976;11.858;2022-09-27T14:49:58;8.80;99.90
16823;DHT22;8528;49.976;11.858;2022-09-27T14:52:31;8.60;99.90
16823;DHT22;8528;49.976;11.858;2022-09-27T14:55:18;8.50;99.90
16823;DHT22;8528;49.976;11.858;2022-09-27T14:57:55;8.50;99.90
16823;DHT22;8528;49.976;11.858;2022-09-27T15:03:02;8.40;99.90
16823;DHT22;8528;49.976;11.858;2022-09-27T15:05:32;8.40;99.90
16823;DHT22;8528;49.976;11.858;2022-09-27T15:08:02;8.30;99.90
16823;DHT22;8528;49.976;11.858;2022-09-27T15:10:35;8.30;99.90
16823;DHT22;8528;49.976;11.858;2022-09-27T15:13:04;8.10;99.90
16823;DHT22;8528;49.976;11.858;2022-09-27T15:15:36;7.90;99.90
16823;DHT22;8528;49.976;11.858;2022-09-27T15:20:55;7.60;99.90
16823;DHT22;8528;49.976;11.858;2022-09-27T15:23:33;7.40;99.90
16823;DHT22;8528;49.976;11.858;2022-09-27T15:26:06;7.20;99.90
16823;DHT22;8528;49.976;11.858;2022-09-27T15:28:35;7.00;99.90
16823;DHT22;8528;49.976;11.858;2022-09-27T15:31:07;6.80;99.90
16823;DHT22;8528;49.976;11.858;2022-09-27T15:33:34;6.70;99.90
16823;DHT22;8528;49.976;11.858;2022-09-27T15:36:04;6.50;99.90
16823;DHT22;8528;49.976;11.858;2022-09-27T15:38:38;6.60;99.90
16823;DHT22;8528;49.976;11.858;2022-09-27T15:41:12;6.60;99.90
16823;DHT22;8528;49.976;11.858;2022-09-27T15:43:43;6.60;99.90
16823;DHT22;8528;49.976;11.858;2022-09-27T15:46:35;6.70;99.90
16823;DHT22;8528;49.976;11.858;2022-09-27T15:49:27;6.80;99.90
16823;DHT22;8528;49.976;11.858;2022-09-27T15:51:57;6.80;99.90
16823;DHT22;8528;49.976;11.858;2022-09-27T15:54:27;6.80;99.90
16823;DHT22;8528;49.976;11.858;2022-09-27T15:56:59;6.80;99.90
16823;DHT22;8528;49.976;11.858;2022-09-27T15:59:35;6.70;99.90
16823;DHT22;8528;49.976;11.858;2022-09-27T16:02:09;6.70;99.90
16823;DHT22;8528;49.976;11.858;2022-09-27T16:04:37;6.70;99.90
16823;DHT22;8528;49.976;11.858;2022-09-27T16:07:05;6.70;99.90
16823;DHT22;8528;49.976;11.858;2022-09-27T16:09:34;6.80;99.90
16823;DHT22;8528;49.976;11.858;2022-09-27T16:12:01;6.90;99.90
16823;DHT22;8528;49.976;11.858;2022-09-27T16:14:28;6.90;99.90
16823;DHT22;8528;49.976;11.858;2022-09-27T16:16:55;6.90;99.90
16823;DHT22;8528;49.976;11.858;2022-09-27T16:19:28;6.90;99.90
16823;DHT22;8528;49.976;11.858;2022-09-27T16:21:55;6.90;99.90
16823;DHT22;8528;49.976;11.858;2022-09-27T16:24:22;6.90;99.90
16823;DHT22;8528;49.976;11.858;2022-09-27T16:26:51;6.90;99.90
16823;DHT22;8528;49.976;11.858;2022-09-27T16:29:17;6.90;99.90
16823;DHT22;8528;49.976;11.858;2022-09-27T16:31:47;6.80;99.90
16823;DHT22;8528;49.976;11.858;2022-09-27T16:34:15;6.80;99.90
16823;DHT22;8528;49.976;11.858;2022-09-27T16:36:42;6.80;99.90
16823;DHT22;8528;49.976;11.858;2022-09-27T16:39:12;6.70;99.90
16823;DHT22;8528;49.976;11.858;2022-09-27T16:41:40;6.70;99.90
16823;DHT22;8528;49.976;11.858;2022-09-27T16:44:08;6.70;99.90
16823;DHT22;8528;49.976;11.858;2022-09-27T16:46:43;6.60;99.90
16823;DHT22;8528;49.976;11.858;2022-09-27T16:49:18;6.60;99.90
16823;DHT22;8528;49.976;11.858;2022-09-27T16:52:06;6.60;99.90
16823;DHT22;8528;49.976;11.858;2022-09-27T16:54:38;6.60;99.90
16823;DHT22;8528;49.976;11.858;2022-09-27T16:57:06;6.60;99.90
16823;DHT22;8528;49.976;11.858;2022-09-27T16:59:32;6.60;99.90
16823;DHT22;8528;49.976;11.858;2022-09-27T17:02:00;6.60;99.90
16823;DHT22;8528;49.976;11.858;2022-09-27T17:04:27;6.60;99.90
16823;DHT22;8528;49.976;11.858;2022-09-27T17:06:54;6.60;99.90
16823;DHT22;8528;49.976;11.858;2022-09-27T17:09:22;6.50;99.90
16823;DHT22;8528;49.976;11.858;2022-09-27T17:11:49;6.50;99.90
16823;DHT22;8528;49.976;11.858;2022-09-27T17:14:16;6.60;99.90
16823;DHT22;8528;49.976;11.858;2022-09-27T17:16:47;6.60;99.90
16823;DHT22;8528;49.976;11.858;2022-09-27T17:19:15;6.60;99.90
16823;DHT22;8528;49.976;11.858;2022-09-27T17:21:43;6.60;99.90
16823;DHT22;8528;49.976;11.858;2022-09-27T17:24:10;6.60;99.90
16823;DHT22;8528;49.976;11.858;2022-09-27T17:26:40;6.60;99.90
16823;DHT22;8528;49.976;11.858;2022-09-27T17:29:10;6.70;99.90
16823;DHT22;8528;49.976;11.858;2022-09-27T17:31:41;6.60;99.90
16823;DHT22;8528;49.976;11.858;2022-09-27T17:34:09;6.60;99.90
16823;DHT22;8528;49.976;11.858;2022-09-27T17:36:42;6.60;99.90
16823;DHT22;8528;49.976;11.858;2022-09-27T17:39:18;6.50;99.90
16823;DHT22;8528;49.976;11.858;2022-09-27T17:41:48;6.50;99.90
16823;DHT22;8528;49.976;11.858;2022-09-27T17:44:16;6.50;99.90
16823;DHT22;8528;49.976;11.858;2022-09-27T17:46:45;6.60;99.90
16823;DHT22;8528;49.976;11.858;2022-09-27T17:49:12;6.50;99.90
16823;DHT22;8528;49.976;11.858;2022-09-27T17:52:01;6.50;99.90
16823;DHT22;8528;49.976;11.858;2022-09-27T17:54:28;6.50;99.90
16823;DHT22;8528;49.976;11.858;2022-09-27T17:56:58;6.60;99.90
16823;DHT22;8528;49.976;11.858;2022-09-27T17:59:25;6.60;99.90
16823;DHT22;8528;49.976;11.858;2022-09-27T18:01:55;6.60;99.90
16823;DHT22;8528;49.976;11.858;2022-09-27T18:04:23;6.70;99.90
16823;DHT22;8528;49.976;11.858;2022-09-27T18:06:52;6.70;99.90
16823;DHT22;8528;49.976;11.858;2022-09-27T18:09:19;6.70;99.90
16823;DHT22;8528;49.976;11.858;2022-09-27T18:11:47;6.70;99.90
16823;DHT22;8528;49.976;11.858;2022-09-27T18:14:14;6.70;99.90
16823;DHT22;8528;49.976;11.858;2022-09-27T18:16:41;6.60;99.90
16823;DHT22;8528;49.976;11.858;2022-09-27T18:19:13;6.60;99.90
16823;DHT22;8528;49.976;11.858;2022-09-27T18:21:43;6.60;99.90
16823;DHT22;8528;49.976;11.858;2022-09-27T18:24:13;6.50;99.90